Artemis — SWZE — position and weather

sailwx.info

Track history (hours):
 
Tides and Currents Weather Stations Pressure Air Temp Water Temp Dewpoint Dewpoint Depression Visibility Wind Speed Wind Dir Waves Ship Positions

Artemis

Last reported at 2018-Apr-24 06:50 UTC. Time now 2018-Apr-24 10:52 UTC.
Position N 37°07' E 024°55'.

Length 90 m; draft 3.5 m.

Type: Ship. MMSI: 237026300.

Date/timePositionNaut miles runAvg speedWind from/ knotsBaromVisibWave heightAir tempDewpointWater temp
2018-Apr-24 06:50N 37°07' E 024°55'514.6
2018-Apr-24 06:30N 37°06' E 025°02'5 7.6
2018-Apr-24 05:47N 37°05' E 025°08'413.6
2018-Apr-24 05:30N 37°09' E 025°07'714.7
2018-Apr-24 05:00N 37°16' E 025°04'714.8
2018-Apr-24 04:30N 37°22' E 024°60'5 9.3
2018-Apr-24 03:59N 37°26' E 024°56'0 0.0
2018-Apr-24 03:16N 37°26' E 024°56'0 0.0
2018-Apr-24 02:40N 37°26' E 024°56'0 0.0
2018-Apr-24 02:28N 37°26' E 024°56'0 0.0
2018-Apr-24 01:52N 37°26' E 024°56'0 0.0
2018-Apr-24 01:21N 37°26' E 024°56'0 0.0
2018-Apr-24 01:00N 37°26' E 024°56'0 0.1
2018-Apr-23 19:19N 37°26' E 024°57'612.0
2018-Apr-23 18:48N 37°31' E 024°52'415.0
2018-Apr-23 18:30N 37°31' E 024°47'2 0.2
2018-Apr-23 05:13N 37°31' E 024°44'314.8
2018-Apr-23 05:00N 37°31' E 024°48'714.2
2018-Apr-23 04:31N 37°30' E 024°56'4 0.4
2018-Apr-22 19:48N 37°26' E 024°56'0 0.1
2018-Apr-22 18:45N 37°26' E 024°57'310.9
2018-Apr-22 18:30N 37°24' E 024°59'814.9
2018-Apr-22 18:00N 37°17' E 025°02'715.1
2018-Apr-22 17:30N 37°10' E 025°05'6 8.1
2018-Apr-22 16:48N 37°05' E 025°08'414.2
2018-Apr-22 16:30N 37°07' E 025°04'714.7
2018-Apr-22 16:00N 37°07' E 024°54'1 0.1
2018-Apr-22 06:46N 37°06' E 024°56'414.6
2018-Apr-22 06:30N 37°06' E 025°00'6 9.0
2018-Apr-22 05:47N 37°05' E 025°08'413.5
2018-Apr-22 05:30N 37°09' E 025°07'714.7
2018-Apr-22 05:00N 37°16' E 025°03'714.9
2018-Apr-22 04:30N 37°22' E 024°60'5 5.6
2018-Apr-22 03:40N 37°26' E 024°56'0 0.0
2018-Apr-22 03:22N 37°26' E 024°56'0 0.0
2018-Apr-21 15:32N 37°26' E 024°57'0 8.1
2018-Apr-21 15:29N 37°26' E 024°57'613.4
2018-Apr-21 15:01N 37°20' E 025°00'813.9
2018-Apr-21 14:28N 37°13' E 025°04'613.7
2018-Apr-21 14:01N 37°07' E 025°07'3 5.1
2018-Apr-21 13:29N 37°05' E 025°08'612.4
2018-Apr-21 13:00N 37°11' E 025°12'611.8
2018-Apr-21 12:30N 37°09' E 025°19'4 8.2
2018-Apr-21 12:00N 37°06' E 025°22'0 0.1
2018-Apr-21 11:30N 37°06' E 025°22'4 8.8
2018-Apr-21 11:00N 37°03' E 025°18'4 0.2
2018-Apr-20 14:00N 36°59' E 025°17'714.4
2018-Apr-20 13:30N 37°06' E 025°21'2 3.3
2018-Apr-20 13:00N 37°07' E 025°21'1012.2
2018-Apr-20 12:11N 37°06' E 025°08'1 2.9
2018-Apr-20 11:43N 37°05' E 025°08'313.4
2018-Apr-20 11:30N 37°07' E 025°07'815.1
2018-Apr-20 11:01N 37°14' E 025°03'815.1
2018-Apr-20 10:30N 37°22' E 024°60'5 6.7
2018-Apr-20 09:44N 37°26' E 024°57'414.2
2018-Apr-20 09:29N 37°30' E 024°57'714.2
2018-Apr-20 09:00N 37°31' E 024°48'4 0.2
2018-Apr-19 08:34N 37°31' E 024°44'115.1
2018-Apr-19 08:30N 37°31' E 024°45'914.6
2018-Apr-19 07:54N 37°30' E 024°56'4 6.6
2018-Apr-19 07:18N 37°26' E 024°57'511.9
2018-Apr-19 06:52N 37°29' E 025°02'515.0
2018-Apr-19 06:30N 37°32' E 025°08'2 3.9
2018-Apr-19 06:00N 37°33' E 025°06'7 0.6
2018-Apr-18 17:47N 37°38' E 024°60'414.9
2018-Apr-18 17:30N 37°35' E 025°03'510.8
2018-Apr-18 17:00N 37°32' E 025°09'1113.9
2018-Apr-18 16:13N 37°26' E 024°58'1 0.8
2018-Apr-18 15:33N 37°26' E 024°57'113.8
2018-Apr-18 15:30N 37°26' E 024°58'612.1
2018-Apr-18 15:00N 37°21' E 024°54'7 0.8
2018-Apr-18 05:15N 37°16' E 024°47'414.9
2018-Apr-18 05:00N 37°18' E 024°51'714.9
2018-Apr-18 04:30N 37°23' E 024°58'4 0.8
2018-Apr-17 23:31N 37°26' E 024°56'0 0.0
2018-Apr-17 23:25N 37°26' E 024°56'0 0.0
2018-Apr-17 18:46N 37°26' E 024°57'2 8.2
2018-Apr-17 18:30N 37°25' E 024°58'714.7
2018-Apr-17 18:00N 37°18' E 025°02'714.9
2018-Apr-17 17:30N 37°11' E 025°05'7 9.1
2018-Apr-17 16:47N 37°05' E 025°08'414.2
2018-Apr-17 16:30N 37°07' E 025°04'714.8
2018-Apr-17 16:00N 37°08' E 024°55'2 0.2
2018-Apr-17 06:45N 37°06' E 024°56'415.2
2018-Apr-17 06:30N 37°06' E 025°00'7 9.2
2018-Apr-17 05:48N 37°05' E 025°08'413.7
2018-Apr-17 05:31N 37°09' E 025°06'714.8
2018-Apr-17 05:00N 37°16' E 025°03'715.0
2018-Apr-17 04:30N 37°23' E 024°59'4 6.5
2018-Apr-17 03:49N 37°26' E 024°56'0 0.0
2018-Apr-16 19:27N 37°26' E 024°56'4 8.7
2018-Apr-16 19:00N 37°30' E 024°56'714.6
2018-Apr-16 18:30N 37°31' E 024°47'3 0.2
2018-Apr-16 05:11N 37°31' E 024°44'315.1
2018-Apr-16 05:00N 37°31' E 024°47'714.8
2018-Apr-16 04:30N 37°30' E 024°56'4 0.8
2018-Apr-15 23:44N 37°26' E 024°56'0 0.0
2018-Apr-15 23:26N 37°26' E 024°56'0 0.0
2018-Apr-15 22:08N 37°26' E 024°56'0 0.0
2018-Apr-15 21:59N 37°26' E 024°56'0 0.0
2018-Apr-15 21:25N 37°26' E 024°56'511.6
2018-Apr-15 21:00N 37°22' E 024°60'714.8
2018-Apr-15 20:31N 37°16' E 025°04'714.7
2018-Apr-15 20:00N 37°08' E 025°06'4 6.7
2018-Apr-15 19:26N 37°05' E 025°08'613.9
2018-Apr-15 19:00N 37°07' E 025°01'5 0.4
2018-Apr-15 06:56N 37°07' E 024°55'614.7
2018-Apr-15 06:31N 37°06' E 025°03'5 7.3
2018-Apr-15 05:53N 37°05' E 025°08'513.8
2018-Apr-15 05:30N 37°10' E 025°06'714.8
2018-Apr-15 05:00N 37°17' E 025°03'814.8
2018-Apr-15 04:30N 37°24' E 024°59'3 0.4
2018-Apr-14 19:18N 37°26' E 024°56'0 0.2
2018-Apr-14 18:49N 37°26' E 024°57'411.7
2018-Apr-14 18:30N 37°23' E 024°59'814.9
2018-Apr-14 18:00N 37°16' E 025°02'715.0
2018-Apr-14 17:30N 37°09' E 025°06'3 4.9
2018-Apr-14 16:48N 37°06' E 025°08'515.0
2018-Apr-14 16:30N 37°09' E 025°13'713.4
2018-Apr-14 16:00N 37°08' E 025°21'2 3.5
2018-Apr-14 15:30N 37°06' E 025°21'713.9
2018-Apr-14 15:01N 36°60' E 025°17'  
Track history (hours):
 
Tides and Currents Weather Stations Pressure Air Temp Water Temp Dewpoint Dewpoint Depression Visibility Wind Speed Wind Dir Waves Ship Positions

Artemis

Last reported at 2018-Apr-24 06:50 UTC. Time now 2018-Apr-24 10:52 UTC.
Position N 37°07' E 024°55'.

Length 90 m; draft 3.5 m.

Type: Ship. MMSI: 237026300.

Date/timePositionNaut miles runAvg speedWind from/ knotsBaromVisibWave heightAir tempDewpointWater temp
2018-Apr-24 06:50N 37°07' E 024°55'514.6
2018-Apr-24 06:30N 37°06' E 025°02'5 7.6
2018-Apr-24 05:47N 37°05' E 025°08'413.6
2018-Apr-24 05:30N 37°09' E 025°07'714.7
2018-Apr-24 05:00N 37°16' E 025°04'714.8
2018-Apr-24 04:30N 37°22' E 024°60'5 9.3
2018-Apr-24 03:59N 37°26' E 024°56'0 0.0
2018-Apr-24 03:16N 37°26' E 024°56'0 0.0
2018-Apr-24 02:40N 37°26' E 024°56'0 0.0
2018-Apr-24 02:28N 37°26' E 024°56'0 0.0
2018-Apr-24 01:52N 37°26' E 024°56'0 0.0
2018-Apr-24 01:21N 37°26' E 024°56'0 0.0
2018-Apr-24 01:00N 37°26' E 024°56'0 0.1
2018-Apr-23 19:19N 37°26' E 024°57'612.0
2018-Apr-23 18:48N 37°31' E 024°52'415.0
2018-Apr-23 18:30N 37°31' E 024°47'2 0.2
2018-Apr-23 05:13N 37°31' E 024°44'314.8
2018-Apr-23 05:00N 37°31' E 024°48'714.2
2018-Apr-23 04:31N 37°30' E 024°56'4 0.4
2018-Apr-22 19:48N 37°26' E 024°56'0 0.1
2018-Apr-22 18:45N 37°26' E 024°57'310.9
2018-Apr-22 18:30N 37°24' E 024°59'814.9
2018-Apr-22 18:00N 37°17' E 025°02'715.1
2018-Apr-22 17:30N 37°10' E 025°05'6 8.1
2018-Apr-22 16:48N 37°05' E 025°08'414.2
2018-Apr-22 16:30N 37°07' E 025°04'714.7
2018-Apr-22 16:00N 37°07' E 024°54'1 0.1
2018-Apr-22 06:46N 37°06' E 024°56'414.6
2018-Apr-22 06:30N 37°06' E 025°00'6 9.0
2018-Apr-22 05:47N 37°05' E 025°08'413.5
2018-Apr-22 05:30N 37°09' E 025°07'714.7
2018-Apr-22 05:00N 37°16' E 025°03'714.9
2018-Apr-22 04:30N 37°22' E 024°60'5 5.6
2018-Apr-22 03:40N 37°26' E 024°56'0 0.0
2018-Apr-22 03:22N 37°26' E 024°56'0 0.0
2018-Apr-21 15:32N 37°26' E 024°57'0 8.1
2018-Apr-21 15:29N 37°26' E 024°57'613.4
2018-Apr-21 15:01N 37°20' E 025°00'813.9
2018-Apr-21 14:28N 37°13' E 025°04'613.7
2018-Apr-21 14:01N 37°07' E 025°07'3 5.1
2018-Apr-21 13:29N 37°05' E 025°08'612.4
2018-Apr-21 13:00N 37°11' E 025°12'611.8
2018-Apr-21 12:30N 37°09' E 025°19'4 8.2
2018-Apr-21 12:00N 37°06' E 025°22'0 0.1
2018-Apr-21 11:30N 37°06' E 025°22'4 8.8
2018-Apr-21 11:00N 37°03' E 025°18'4 0.2
2018-Apr-20 14:00N 36°59' E 025°17'714.4
2018-Apr-20 13:30N 37°06' E 025°21'2 3.3
2018-Apr-20 13:00N 37°07' E 025°21'1012.2
2018-Apr-20 12:11N 37°06' E 025°08'1 2.9
2018-Apr-20 11:43N 37°05' E 025°08'313.4
2018-Apr-20 11:30N 37°07' E 025°07'815.1
2018-Apr-20 11:01N 37°14' E 025°03'815.1
2018-Apr-20 10:30N 37°22' E 024°60'5 6.7
2018-Apr-20 09:44N 37°26' E 024°57'414.2
2018-Apr-20 09:29N 37°30' E 024°57'714.2
2018-Apr-20 09:00N 37°31' E 024°48'4 0.2
2018-Apr-19 08:34N 37°31' E 024°44'115.1
2018-Apr-19 08:30N 37°31' E 024°45'914.6
2018-Apr-19 07:54N 37°30' E 024°56'4 6.6
2018-Apr-19 07:18N 37°26' E 024°57'511.9
2018-Apr-19 06:52N 37°29' E 025°02'515.0
2018-Apr-19 06:30N 37°32' E 025°08'2 3.9
2018-Apr-19 06:00N 37°33' E 025°06'7 0.6
2018-Apr-18 17:47N 37°38' E 024°60'414.9
2018-Apr-18 17:30N 37°35' E 025°03'510.8
2018-Apr-18 17:00N 37°32' E 025°09'1113.9
2018-Apr-18 16:13N 37°26' E 024°58'1 0.8
2018-Apr-18 15:33N 37°26' E 024°57'113.8
2018-Apr-18 15:30N 37°26' E 024°58'612.1
2018-Apr-18 15:00N 37°21' E 024°54'7 0.8
2018-Apr-18 05:15N 37°16' E 024°47'414.9
2018-Apr-18 05:00N 37°18' E 024°51'714.9
2018-Apr-18 04:30N 37°23' E 024°58'4 0.8
2018-Apr-17 23:31N 37°26' E 024°56'0 0.0
2018-Apr-17 23:25N 37°26' E 024°56'0 0.0
2018-Apr-17 18:46N 37°26' E 024°57'2 8.2
2018-Apr-17 18:30N 37°25' E 024°58'714.7
2018-Apr-17 18:00N 37°18' E 025°02'714.9
2018-Apr-17 17:30N 37°11' E 025°05'7 9.1
2018-Apr-17 16:47N 37°05' E 025°08'414.2
2018-Apr-17 16:30N 37°07' E 025°04'714.8
2018-Apr-17 16:00N 37°08' E 024°55'2 0.2
2018-Apr-17 06:45N 37°06' E 024°56'415.2
2018-Apr-17 06:30N 37°06' E 025°00'7 9.2
2018-Apr-17 05:48N 37°05' E 025°08'413.7
2018-Apr-17 05:31N 37°09' E 025°06'714.8
2018-Apr-17 05:00N 37°16' E 025°03'715.0
2018-Apr-17 04:30N 37°23' E 024°59'4 6.5
2018-Apr-17 03:49N 37°26' E 024°56'0 0.0
2018-Apr-16 19:27N 37°26' E 024°56'4 8.7
2018-Apr-16 19:00N 37°30' E 024°56'714.6
2018-Apr-16 18:30N 37°31' E 024°47'3 0.2
2018-Apr-16 05:11N 37°31' E 024°44'315.1
2018-Apr-16 05:00N 37°31' E 024°47'714.8
2018-Apr-16 04:30N 37°30' E 024°56'4 0.8
2018-Apr-15 23:44N 37°26' E 024°56'0 0.0
2018-Apr-15 23:26N 37°26' E 024°56'0 0.0
2018-Apr-15 22:08N 37°26' E 024°56'0 0.0
2018-Apr-15 21:59N 37°26' E 024°56'0 0.0
2018-Apr-15 21:25N 37°26' E 024°56'511.6
2018-Apr-15 21:00N 37°22' E 024°60'714.8
2018-Apr-15 20:31N 37°16' E 025°04'714.7
2018-Apr-15 20:00N 37°08' E 025°06'4 6.7
2018-Apr-15 19:26N 37°05' E 025°08'613.9
2018-Apr-15 19:00N 37°07' E 025°01'5 0.4
2018-Apr-15 06:56N 37°07' E 024°55'614.7
2018-Apr-15 06:31N 37°06' E 025°03'5 7.3
2018-Apr-15 05:53N 37°05' E 025°08'513.8
2018-Apr-15 05:30N 37°10' E 025°06'714.8
2018-Apr-15 05:00N 37°17' E 025°03'814.8
2018-Apr-15 04:30N 37°24' E 024°59'3 0.4
2018-Apr-14 19:18N 37°26' E 024°56'0 0.2
2018-Apr-14 18:49N 37°26' E 024°57'411.7
2018-Apr-14 18:30N 37°23' E 024°59'814.9
2018-Apr-14 18:00N 37°16' E 025°02'715.0
2018-Apr-14 17:30N 37°09' E 025°06'3 4.9
2018-Apr-14 16:48N 37°06' E 025°08'515.0
2018-Apr-14 16:30N 37°09' E 025°13'713.4
2018-Apr-14 16:00N 37°08' E 025°21'2 3.5
2018-Apr-14 15:30N 37°06' E 025°21'713.9
2018-Apr-14 15:01N 36°60' E 025°17'  

Dump ship's entire track history